AirNav   Air Wisconsin Up To $57,000 Bonus
 
 1167 users online  

2PN7 Fisher Family Farms Airport
Zelienople, Pennsylvania, USA

GOING TO ZELIENOPLE?


FAA INFORMATION EFFECTIVE 19 MAY 2022

Location

FAA Identifier: 2PN7
Lat/Long: 40-51-20.2320N 080-04-14.2130W
40-51.337200N 080-04.236883W
40.8556200,-80.0706147
(estimated)
Elevation: 1210 ft. / 369 m (estimated)
Variation: 08W (1985)
From city: 4 miles NE of ZELIENOPLE, PA
Time zone: UTC -4 (UTC -5 during Standard Time)
Zip code: 16037

Airport Operations

Airport use: Private use. Permission required prior to landing
Activation date: 12/1972
Control tower: no
ARTCC: CLEVELAND CENTER
FSS: ALTOONA FLIGHT SERVICE STATION
Attendance: UNATNDD
Wind indicator: yes
Segmented circle: no

Airport Communications

WX AWOS-3PT at PJC (5 nm SW): 118.45 (724-452-5304)
WX AWOS-3PT at BTP (7 nm SE): 121.450 (724-586-6434)
WX AWOS-3PT at BVI (15 nm W): 118.35 (724-843-1024)
WX AWOS-3PT at UCP (19 nm NW): 124.175 ((724) 652-4184)

Nearby radio navigation aids

VOR radial/distance  VOR name  Freq  Var
EWCr082/6.7ELLWOOD CITY VOR/DME115.8008W
AGCr007/34.6ALLEGHENY VOR/DME110.0009W
FKLr201/(36.3)FRANKLIN VOR109.6006W
YNGr141/39.5YOUNGSTOWN VORTAC109.0005W

 
NDB name  Hdg/Dist  Freq  Var  ID
CASTLE132/18.627209WUCP ..- -.-. .--.

Airport Services

Airframe service: NONE
Powerplant service: NONE

Runway Information

Runway 2/20

Dimensions: 1600 x 100 ft. / 488 x 30 m
Surface: asphalt
RUNWAY 2  RUNWAY 20
Traffic pattern: leftleft

Airport Ownership and Management from official FAA records

Ownership: Privately-owned
Owner: JASON D. FISHER
120 BRENNAN LANE
EVANS CITY, PA 16033
Phone 412-522-6884
Manager: JASON D. FISHER
120 BRENNAN LANE
EVANS CITY, PA 16033
Phone 412-522-6884

Airport Operational Statistics

Aircraft based on the field: 2
Single engine airplanes: 2
    

Additional Remarks

FOR CD CTC PITTSBURGH APCH AT 412-472-5591

Instrument Procedures

There are no published instrument procedures at 2PN7.

Some nearby airports with instrument procedures:

KPJC - Zelienople Municipal Airport (5 nm SW)
KBTP - Pittsburgh/Butler Regional Airport (7 nm SE)
KBVI - Beaver County Airport (15 nm W)
29D - Grove City Airport (18 nm N)
KUCP - New Castle Municipal Airport (19 nm NW)
 
Loc | Ops | Rwys | IFR | FBO | Links
Com | Nav | Svcs | Stats | Notes
Area around 2PN7 (Fisher Family Farms Airport)
 
Road maps at: MapQuest Bing Google
 
Aerial photo
No photo
 
Sectional chart

 
Airport distance calculator
Flying to Fisher Family Farms Airport? Find the distance to fly.

From to 2PN7

Sunrise and sunset
Times for 27-May-2022
 Local
(UTC-4)
 Zulu
(UTC)
Morning civil twilight05:2209:22
Sunrise05:5409:54
Sunset20:4000:40
Evening civil twilight21:1301:13

Current date and time
Zulu (UTC)  27-May-2022 23:29:32
Local (UTC-4)  27-May-2022 19:29:32
 
METAR
KPJC 
5nm SW 
272315Z AUTO 23003KT 10SM -RA SCT029 SCT050 OVC100 18/16 A2975 RMK AO2
KBTP 
8nm SE 
272256Z AUTO 20005KT 10SM FEW047 SCT120 21/14 A2976 RMK AO2 SLP077 T02110139 TSNO
KBVI 
16nm W 
272315Z AUTO 29003KT 4SM -RA SCT014 BKN022 OVC028 18/16 A2977 RMK AO2 T01820157
KUCP 
19nm NW 
272256Z AUTO 24004KT 10SM -RA FEW039 BKN055 OVC110 19/17 A2976 RMK AO2 RAB21 SLP087 P0000 T01890167
TAF
KBVI 
16nm W 
271726Z 2718/2818 20007KT P6SM SCT040 TEMPO 2723/2802 5SM -TSRA BKN035CB FM280200 22004KT P6SM VCSH BKN015 FM280700 24006KT P6SM BKN006 FM281400 27005KT P6SM BKN015 FM281600 30005KT P6SM BKN025
NOTAMs
Click for the latest NOTAMs
NOTAMs are issued by the DoD/FAA and will open in a separate window not controlled by AirNav.

 

 
 

Would you like to see your business listed on this page?

 If your business provides an interesting product or service to pilots, flight crews, aircraft, or users of the Fisher Family Farms Airport, you should consider listing it here.  To start the listing process, click on the button below
 
Add a business
 

Other Pages about Fisher Family Farms Airport

Update a link
 
Copyright © AirNav, LLC. All rights reserved. Privacy Policy  Contact